Terminal Aerodrome Forecast
Issued by NWS Corpus Christi, TX

Home | Current Version | Previous Version | Text Only | Print | Product List | Glossary On
Versions: 1 2 3 4 5 6 7 8 9 10 11 12 13
000
FTUS44 KCRP 241739
TAFCRP
TAF
KCRP 241739Z 2418/2518 18020G30KT P6SM FEW030
     FM250400 16015KT P6SM SCT020
     FM250800 25008KT 6SM BR BKN010
     FM251100 35008KT 5SM BR BKN005
     FM251600 36015G24KT P6SM SCT025 SCT250=

USA.gov is the U.S. government's official web portal to all federal, state and local government web resources and services.